createdAt,value
2023-04-29T00:01:06.341Z,71.43
2023-04-29T00:03:33.467Z,78.17
2023-04-29T00:06:01.249Z,69.63
2023-04-29T00:08:28.489Z,77.33
2023-04-29T00:10:55.650Z,83.60
2023-04-29T00:13:22.735Z,85.00
2023-04-29T00:15:50.649Z,78.23
2023-04-29T00:18:17.472Z,89.93
2023-04-29T00:20:44.304Z,80.63
2023-04-29T00:23:11.725Z,89.87
2023-04-29T00:25:39.209Z,91.83
2023-04-29T00:28:06.626Z,91.33
2023-04-29T00:30:34.719Z,89.53
2023-04-29T00:33:01.893Z,98.13
2023-04-29T00:35:28.782Z,97.07
2023-04-29T00:37:55.642Z,102.33
2023-04-29T00:40:22.561Z,99.77
2023-04-29T00:42:49.558Z,106.73
2023-04-29T00:45:16.476Z,97.90
2023-04-29T00:47:43.449Z,100.27
2023-04-29T00:50:10.627Z,110.20
2023-04-29T00:52:39.505Z,111.80
2023-04-29T00:55:09.878Z,101.10
2023-04-29T00:57:36.747Z,109.40
2023-04-29T01:00:04.386Z,105.67
2023-04-29T01:02:31.565Z,109.63
2023-04-29T01:04:58.519Z,103.50
2023-04-29T01:07:54.920Z,100.33
2023-04-29T01:10:29.356Z,99.03
2023-04-29T01:13:29.594Z,101.67
2023-04-29T01:16:05.019Z,85.63
2023-04-29T01:18:41.969Z,90.97
2023-04-29T01:21:09.218Z,87.27
2023-04-29T01:23:36.083Z,91.63
2023-04-29T01:26:03.239Z,103.60
2023-04-29T01:28:54.813Z,92.90
2023-04-29T01:31:32.861Z,85.73
2023-04-29T01:34:10.638Z,85.83
2023-04-29T01:36:51.720Z,89.43
2023-04-29T01:39:32.210Z,81.63
2023-04-29T01:42:02.161Z,89.17
2023-04-29T01:44:31.915Z,78.00
2023-04-29T01:46:59.707Z,81.93
2023-04-29T01:49:27.717Z,69.00
2023-04-29T01:51:54.974Z,81.10
2023-04-29T01:54:22.807Z,65.37
2023-04-29T01:56:49.790Z,66.70
2023-04-29T01:59:16.743Z,70.33
2023-04-29T02:01:43.944Z,74.17
2023-04-29T02:04:10.762Z,69.73
2023-04-29T02:06:37.628Z,62.83
2023-04-29T02:09:04.546Z,67.03
2023-04-29T02:11:31.488Z,75.70
2023-04-29T02:13:58.418Z,79.03
2023-04-29T02:16:25.314Z,72.80
2023-04-29T02:18:52.233Z,64.40
2023-04-29T02:21:19.060Z,58.67
2023-04-29T02:23:45.886Z,74.33
2023-04-29T02:26:14.162Z,68.33
2023-04-29T02:28:41.022Z,64.80
2023-04-29T02:31:07.854Z,65.27
2023-04-29T02:33:34.953Z,77.03
2023-04-29T02:36:01.838Z,73.50
2023-04-29T02:38:28.714Z,65.03
2023-04-29T02:40:55.590Z,74.47
2023-04-29T02:43:22.734Z,76.20
2023-04-29T02:45:49.588Z,79.73
2023-04-29T02:48:17.187Z,73.30
2023-04-29T02:50:44.040Z,80.07
2023-04-29T02:53:10.851Z,71.13
2023-04-29T02:55:37.683Z,75.20
2023-04-29T02:58:04.565Z,67.60
2023-04-29T03:00:31.397Z,73.73
2023-04-29T03:02:58.469Z,75.03
2023-04-29T03:05:25.352Z,72.07
2023-04-29T03:07:52.194Z,74.30
2023-04-29T03:10:19.354Z,78.70
2023-04-29T03:12:46.201Z,72.57
2023-04-29T03:17:41.238Z,81.53
2023-04-29T03:20:10.839Z,95.20
2023-04-29T03:22:37.712Z,96.20
2023-04-29T03:25:05.444Z,88.93
2023-04-29T03:27:32.369Z,74.60
2023-04-29T03:29:59.212Z,93.50
2023-04-29T03:32:26.168Z,101.50
2023-04-29T03:34:52.989Z,95.50
2023-04-29T03:37:19.852Z,93.37
2023-04-29T03:39:46.714Z,98.80
2023-04-29T03:42:13.532Z,88.50
2023-04-29T03:44:40.355Z,93.03
2023-04-29T03:47:07.424Z,90.43
2023-04-29T03:49:34.627Z,91.57
2023-04-29T03:52:01.680Z,82.87
2023-04-29T03:54:28.672Z,83.67
2023-04-29T03:56:56.482Z,87.40
2023-04-29T03:59:23.461Z,79.50
2023-04-29T04:01:50.319Z,70.63
2023-04-29T04:04:17.799Z,71.27
2023-04-29T04:06:51.294Z,82.77
2023-04-29T04:09:18.827Z,71.53
2023-04-29T04:11:45.862Z,80.20
2023-04-29T04:14:13.055Z,79.97
2023-04-29T04:16:39.998Z,69.10
2023-04-29T04:19:06.837Z,75.30
2023-04-29T04:21:33.668Z,69.27
2023-04-29T04:24:00.495Z,74.87
2023-04-29T04:26:27.328Z,68.37
2023-04-29T04:28:54.160Z,62.67
2023-04-29T04:31:21.083Z,69.03
2023-04-29T04:33:47.966Z,77.57
2023-04-29T04:36:14.860Z,72.23
2023-04-29T04:38:41.676Z,68.07
2023-04-29T04:41:08.774Z,73.23
2023-04-29T04:43:35.630Z,63.47
2023-04-29T04:46:11.730Z,63.00
2023-04-29T04:48:38.744Z,73.33
2023-04-29T04:51:12.779Z,61.37
2023-04-29T04:53:41.082Z,58.93
2023-04-29T04:56:08.618Z,63.07
2023-04-29T04:58:35.619Z,60.27
2023-04-29T05:01:02.738Z,60.00
2023-04-29T05:03:29.822Z,57.67
2023-04-29T05:05:58.288Z,48.37
2023-04-29T05:08:25.986Z,57.60
2023-04-29T05:10:54.284Z,56.53
2023-04-29T05:13:21.402Z,55.00
2023-04-29T05:21:40.341Z,47.30
2023-04-29T05:24:07.491Z,51.30
2023-04-29T05:26:34.318Z,53.10
2023-04-29T05:29:01.363Z,44.33
2023-04-29T05:31:28.767Z,54.47
2023-04-29T05:33:55.702Z,52.20
2023-04-29T05:36:22.854Z,44.50
2023-04-29T05:38:49.714Z,51.57
2023-04-29T05:41:16.547Z,44.73
2023-04-29T05:43:43.372Z,41.43
2023-04-29T05:46:10.448Z,41.50
2023-04-29T05:48:37.327Z,42.20
2023-04-29T05:51:04.242Z,36.97
2023-04-29T05:53:31.640Z,37.40
2023-04-29T05:55:58.538Z,36.93
2023-04-29T05:58:26.088Z,36.60
2023-04-29T06:00:52.912Z,37.27
2023-04-29T06:03:19.923Z,31.17
2023-04-29T06:05:47.220Z,35.33
2023-04-29T06:08:14.618Z,37.20
2023-04-29T06:10:41.429Z,31.03
2023-04-29T06:13:08.272Z,34.40
2023-04-29T06:15:35.139Z,32.30
2023-04-29T06:18:01.997Z,35.10
2023-04-29T06:23:00.357Z,37.90
2023-04-29T06:25:27.215Z,45.13
2023-04-29T06:27:54.348Z,37.63
2023-04-29T06:30:21.285Z,38.97
2023-04-29T06:32:48.141Z,38.93
2023-04-29T06:35:18.097Z,37.00
2023-04-29T06:37:45.107Z,38.37
2023-04-29T06:40:12.373Z,38.77
2023-04-29T06:42:39.423Z,40.97
2023-04-29T06:45:06.896Z,42.13
2023-04-29T06:47:36.556Z,44.50
2023-04-29T06:50:03.921Z,41.37
2023-04-29T06:52:31.420Z,51.87
2023-04-29T06:54:58.295Z,42.30
2023-04-29T06:57:25.169Z,50.10
2023-04-29T06:59:52.512Z,39.53
2023-04-29T07:02:19.533Z,40.77
2023-04-29T07:04:46.577Z,41.43
2023-04-29T07:07:13.607Z,36.97
2023-04-29T07:09:40.471Z,41.70
2023-04-29T07:12:07.503Z,36.27
2023-04-29T07:14:34.344Z,39.70
2023-04-29T07:17:01.446Z,43.53
2023-04-29T07:19:28.462Z,42.87
2023-04-29T07:21:55.318Z,34.70
2023-04-29T07:24:24.182Z,39.27
2023-04-29T07:26:51.069Z,40.30
2023-04-29T07:29:17.956Z,41.97
2023-04-29T07:31:44.819Z,43.23
2023-04-29T07:34:11.960Z,35.73
2023-04-29T07:36:39.554Z,37.00
2023-04-29T07:39:06.568Z,40.07
2023-04-29T07:41:33.459Z,38.93
2023-04-29T07:44:00.390Z,34.00
2023-04-29T07:46:27.368Z,33.30
2023-04-29T07:48:54.243Z,32.37
2023-04-29T07:51:21.948Z,32.07
2023-04-29T07:53:48.742Z,34.30
2023-04-29T07:56:16.365Z,29.73
2023-04-29T07:58:43.330Z,34.97
2023-04-29T08:01:12.210Z,27.90
2023-04-29T08:03:41.533Z,27.93
2023-04-29T08:06:09.237Z,22.10
2023-04-29T08:08:36.284Z,28.17
2023-04-29T08:11:03.281Z,27.07
2023-04-29T08:13:30.219Z,23.10
2023-04-29T08:15:57.071Z,21.47
2023-04-29T08:18:23.954Z,23.40
2023-04-29T08:26:56.455Z,16.83
2023-04-29T08:29:23.302Z,18.50
2023-04-29T08:31:50.651Z,18.30
2023-04-29T08:34:18.042Z,19.50
2023-04-29T08:36:44.864Z,21.53
2023-04-29T08:39:11.677Z,19.57
2023-04-29T08:41:38.634Z,21.40
2023-04-29T08:44:06.316Z,22.60
2023-04-29T08:46:33.304Z,26.17
2023-04-29T08:49:04.042Z,20.63
2023-04-29T08:51:32.453Z,19.93
2023-04-29T08:53:59.391Z,22.27
2023-04-29T08:56:28.175Z,25.60
2023-04-29T08:58:58.243Z,24.20
2023-04-29T09:01:29.340Z,22.80
2023-04-29T09:04:18.158Z,25.73
2023-04-29T09:06:45.262Z,24.23
2023-04-29T09:09:14.813Z,23.40
2023-04-29T09:11:41.758Z,27.17
2023-04-29T09:14:09.598Z,25.60
2023-04-29T09:16:38.497Z,22.43
2023-04-29T09:19:05.368Z,33.43
2023-04-29T09:21:32.474Z,27.67
2023-04-29T09:24:03.411Z,26.97
2023-04-29T09:26:43.708Z,28.30
2023-04-29T09:29:18.419Z,25.50
2023-04-29T09:31:46.508Z,28.03
2023-04-29T09:34:14.515Z,26.97
2023-04-29T09:36:46.824Z,26.30
2023-04-29T09:39:16.660Z,26.67
2023-04-29T09:42:02.826Z,35.53
2023-04-29T09:44:34.625Z,30.10
2023-04-29T09:47:06.070Z,23.97
2023-04-29T09:49:40.938Z,27.83
2023-04-29T09:52:11.033Z,25.37
2023-04-29T09:54:39.877Z,27.63
2023-04-29T09:57:08.624Z,29.50
2023-04-29T09:59:39.880Z,23.00
2023-04-29T10:02:09.400Z,25.70
2023-04-29T10:04:40.621Z,22.03
2023-04-29T10:07:08.715Z,20.40
2023-04-29T10:09:39.946Z,27.40
2023-04-29T10:12:10.087Z,28.50
2023-04-29T10:14:44.638Z,23.00
2023-04-29T10:17:18.762Z,26.43
2023-04-29T10:19:58.687Z,22.17
2023-04-29T10:22:56.753Z,23.03
2023-04-29T10:40:11.271Z,20.20
2023-04-29T10:42:50.457Z,20.70
2023-04-29T10:45:18.759Z,20.40
2023-04-29T10:48:06.853Z,19.20
2023-04-29T10:50:37.398Z,25.90
2023-04-29T10:53:05.627Z,18.50
2023-04-29T10:55:37.638Z,24.23
2023-04-29T10:58:06.111Z,23.97
2023-04-29T11:00:34.850Z,22.80
2023-04-29T11:03:05.370Z,25.50
2023-04-29T11:05:36.687Z,22.23
2023-04-29T11:08:24.372Z,23.20
2023-04-29T11:10:54.837Z,21.90
2023-04-29T11:13:31.920Z,20.87
2023-04-29T11:16:08.092Z,30.83
2023-04-29T11:18:36.674Z,17.67
2023-04-29T11:21:06.250Z,24.27
2023-04-29T11:23:45.302Z,23.37
2023-04-29T11:26:12.239Z,20.40
2023-04-29T11:28:42.240Z,19.87
2023-04-29T11:31:09.133Z,17.90
2023-04-29T11:33:36.351Z,19.37
2023-04-29T11:36:04.934Z,20.33
2023-04-29T11:41:35.902Z,15.97
2023-04-29T11:44:05.102Z,26.43
2023-04-29T11:46:32.441Z,21.80
2023-04-29T11:49:02.513Z,24.17
2023-04-29T11:51:29.583Z,19.73
2023-04-29T11:53:58.205Z,19.70
2023-04-29T11:56:28.198Z,24.30
2023-04-29T11:58:56.978Z,18.07
2023-04-29T12:01:25.333Z,15.47
2023-04-29T12:03:52.349Z,17.37
2023-04-29T12:06:19.366Z,19.73
2023-04-29T12:08:47.653Z,21.97
2023-04-29T12:11:14.616Z,18.70
2023-04-29T12:13:41.704Z,14.57
2023-04-29T12:16:08.842Z,21.00
2023-04-29T12:18:35.952Z,18.77
2023-04-29T12:21:03.245Z,14.60
2023-04-29T12:23:30.208Z,13.47
2023-04-29T12:25:59.538Z,14.30
2023-04-29T12:28:27.542Z,12.90
2023-04-29T12:30:55.148Z,14.53
2023-04-29T12:33:23.919Z,13.77
2023-04-29T12:35:51.773Z,16.57
2023-04-29T12:38:36.617Z,14.10
2023-04-29T12:41:04.098Z,14.70
2023-04-29T12:43:34.715Z,12.10
2023-04-29T12:46:06.028Z,16.90
2023-04-29T12:48:34.632Z,15.43
2023-04-29T12:51:02.434Z,18.57
2023-04-29T12:53:32.728Z,17.50
2023-04-29T12:55:59.845Z,17.97
2023-04-29T12:58:30.695Z,10.83
2023-04-29T13:00:58.620Z,19.57
2023-04-29T13:03:26.938Z,11.07
2023-04-29T13:05:55.092Z,16.47
2023-04-29T13:08:23.085Z,15.80
2023-04-29T13:10:50.109Z,17.83
2023-04-29T13:13:17.195Z,12.03
2023-04-29T13:15:44.314Z,9.70
2023-04-29T13:18:11.437Z,10.00
2023-04-29T13:20:41.937Z,9.40
2023-04-29T13:23:09.594Z,10.97
2023-04-29T13:25:36.519Z,14.80
2023-04-29T13:28:05.611Z,11.53
2023-04-29T13:30:33.434Z,10.67
2023-04-29T13:33:07.888Z,10.90
2023-04-29T13:35:40.339Z,11.80
2023-04-29T13:38:08.174Z,17.40
2023-04-29T13:40:41.695Z,16.17
2023-04-29T13:43:15.041Z,11.87
2023-04-29T13:45:47.816Z,14.47
2023-04-29T13:48:26.021Z,14.20
2023-04-29T13:56:53.262Z,17.63
2023-04-29T13:59:30.470Z,11.70
2023-04-29T14:02:21.646Z,12.70
2023-04-29T14:04:28.802Z,12.80
2023-04-29T14:06:56.327Z,13.63
2023-04-29T14:09:23.206Z,13.83
2023-04-29T14:11:50.596Z,14.97
2023-04-29T14:14:18.354Z,14.70
2023-04-29T14:16:45.219Z,15.97
2023-04-29T14:19:12.173Z,10.63
2023-04-29T14:21:39.002Z,11.17
2023-04-29T14:24:06.059Z,12.30
2023-04-29T14:26:32.976Z,12.87
2023-04-29T14:29:00.459Z,11.77
2023-04-29T14:31:31.917Z,20.50
2023-04-29T14:33:59.512Z,11.17
2023-04-29T14:36:26.848Z,13.80
2023-04-29T14:38:54.128Z,9.10
2023-04-29T14:41:24.012Z,13.13
2023-04-29T14:43:51.082Z,13.43
2023-04-29T14:46:18.049Z,9.47
2023-04-29T14:48:45.127Z,12.30
2023-04-29T14:51:12.046Z,8.03
2023-04-29T14:53:39.253Z,8.60
2023-04-29T14:56:08.214Z,9.10
2023-04-29T14:58:35.161Z,10.43
2023-04-29T15:01:02.004Z,8.83
2023-04-29T15:03:29.028Z,7.43
2023-04-29T15:05:56.470Z,7.30
2023-04-29T15:08:23.417Z,7.87
2023-04-29T15:10:50.442Z,7.10
2023-04-29T15:13:17.320Z,6.50
2023-04-29T15:15:44.194Z,6.40
2023-04-29T15:18:11.195Z,5.70
2023-04-29T15:20:38.841Z,4.53
2023-04-29T15:23:06.178Z,5.77
2023-04-29T15:25:34.834Z,6.33
2023-04-29T15:28:05.963Z,5.93
2023-04-29T15:30:33.038Z,7.37
2023-04-29T15:33:00.082Z,6.57
2023-04-29T15:35:27.794Z,6.50
2023-04-29T15:37:54.755Z,6.13
2023-04-29T15:40:21.858Z,6.33
2023-04-29T15:42:48.691Z,9.77
2023-04-29T15:45:16.093Z,13.07
2023-04-29T15:47:42.907Z,6.53
2023-04-29T15:50:10.632Z,7.37
2023-04-29T15:52:37.470Z,6.87
2023-04-29T15:55:05.588Z,7.37
2023-04-29T15:57:33.159Z,6.40
2023-04-29T16:00:00.142Z,8.27
2023-04-29T16:02:27.124Z,8.97
2023-04-29T16:04:54.058Z,6.40
2023-04-29T16:07:20.896Z,5.30
2023-04-29T16:09:47.719Z,5.33
2023-04-29T16:12:14.645Z,10.60
2023-04-29T16:14:41.497Z,7.93
2023-04-29T16:17:08.348Z,5.87
2023-04-29T16:19:36.873Z,5.43
2023-04-29T16:22:04.857Z,10.50
2023-04-29T16:24:32.119Z,5.50
2023-04-29T16:26:59.489Z,6.50
2023-04-29T16:29:26.426Z,7.00
2023-04-29T16:31:53.440Z,6.70
2023-04-29T16:34:20.594Z,5.80
2023-04-29T16:36:47.468Z,6.87
2023-04-29T16:41:49.708Z,10.73
2023-04-29T16:44:16.549Z,16.97
2023-04-29T16:46:44.629Z,6.30
2023-04-29T16:49:11.909Z,6.50
2023-04-29T16:51:38.780Z,5.63
2023-04-29T16:54:05.648Z,5.90
2023-04-29T16:56:32.470Z,9.10
2023-04-29T16:58:59.461Z,5.60
2023-04-29T17:01:26.332Z,5.77
2023-04-29T17:03:53.204Z,6.63
2023-04-29T17:06:20.148Z,6.87
2023-04-29T17:08:50.022Z,7.30
2023-04-29T17:11:18.489Z,7.70
2023-04-29T17:13:45.350Z,6.30
2023-04-29T17:16:14.389Z,7.70
2023-04-29T17:18:41.490Z,6.07
2023-04-29T17:21:08.970Z,12.03
2023-04-29T17:23:35.960Z,7.83
2023-04-29T17:26:03.652Z,6.37
2023-04-29T17:28:30.876Z,9.83
2023-04-29T17:31:01.091Z,6.30
2023-04-29T17:33:34.132Z,8.03
2023-04-29T17:36:02.616Z,7.43
2023-04-29T17:38:30.403Z,8.37
2023-04-29T17:40:57.212Z,8.13
2023-04-29T17:43:24.146Z,8.73
2023-04-29T17:45:51.060Z,7.90
2023-04-29T17:48:19.446Z,10.07
2023-04-29T17:50:46.976Z,7.87
2023-04-29T17:53:14.454Z,7.63
2023-04-29T17:55:42.074Z,7.83
2023-04-29T17:58:09.119Z,6.10
2023-04-29T18:00:36.331Z,8.13
2023-04-29T18:03:04.282Z,6.23
2023-04-29T18:05:31.346Z,5.87
2023-04-29T18:07:58.154Z,6.73
2023-04-29T18:10:25.002Z,6.80
2023-04-29T18:12:52.032Z,8.63
2023-04-29T18:15:21.174Z,5.37
2023-04-29T18:17:48.152Z,11.90
2023-04-29T18:20:15.037Z,6.50
2023-04-29T18:22:41.896Z,5.53
2023-04-29T18:25:09.212Z,8.87
2023-04-29T18:27:36.328Z,7.30
2023-04-29T18:30:04.116Z,8.90
2023-04-29T18:32:31.007Z,6.30
2023-04-29T18:34:59.729Z,9.43
2023-04-29T18:37:26.853Z,5.33
2023-04-29T18:39:53.817Z,5.40
2023-04-29T18:42:21.291Z,5.43
2023-04-29T18:44:49.475Z,6.53
2023-04-29T18:47:16.415Z,15.77
2023-04-29T18:50:04.623Z,8.00
2023-04-29T18:52:31.508Z,7.50
2023-04-29T18:54:58.355Z,6.90
2023-04-29T18:57:25.264Z,10.50
2023-04-29T18:59:53.377Z,6.83
2023-04-29T19:02:20.367Z,7.87
2023-04-29T19:04:47.296Z,8.57
2023-04-29T19:07:14.208Z,5.77
2023-04-29T19:09:41.005Z,8.10
2023-04-29T19:12:08.641Z,8.03
2023-04-29T19:14:35.809Z,13.37
2023-04-29T19:17:02.645Z,12.73
2023-04-29T19:19:30.507Z,13.23
2023-04-29T19:21:57.578Z,8.43
2023-04-29T19:24:24.380Z,6.97
2023-04-29T19:26:51.373Z,12.73
2023-04-29T19:29:18.292Z,7.07
2023-04-29T19:31:45.123Z,7.93
2023-04-29T19:34:11.960Z,6.73
2023-04-29T19:36:38.933Z,7.23
2023-04-29T19:39:05.842Z,12.17
2023-04-29T19:41:34.960Z,7.30
2023-04-29T19:44:02.148Z,9.20
2023-04-29T19:46:29.052Z,7.83
2023-04-29T19:48:55.850Z,8.90
2023-04-29T19:51:22.647Z,6.87
2023-04-29T19:53:49.912Z,9.30
2023-04-29T19:56:16.810Z,7.03
2023-04-29T19:58:43.614Z,7.27
2023-04-29T20:01:10.980Z,8.97
2023-04-29T20:03:39.476Z,12.07
2023-04-29T20:06:07.473Z,8.20
2023-04-29T20:08:34.357Z,9.53
2023-04-29T20:11:02.688Z,7.57
2023-04-29T20:13:29.649Z,13.23
2023-04-29T20:15:56.734Z,8.80
2023-04-29T20:18:23.673Z,9.77
2023-04-29T20:20:50.893Z,10.40
2023-04-29T20:23:17.812Z,8.23
2023-04-29T20:25:44.690Z,8.37
2023-04-29T20:28:11.581Z,11.20
2023-04-29T20:30:38.413Z,8.27
2023-04-29T20:33:07.031Z,9.73
2023-04-29T20:35:35.452Z,10.40
2023-04-29T20:38:02.737Z,7.77
2023-04-29T20:43:30.745Z,12.63
2023-04-29T20:45:58.636Z,6.60
2023-04-29T20:48:25.509Z,6.37
2023-04-29T20:50:52.385Z,6.73
2023-04-29T20:53:19.193Z,7.90
2023-04-29T20:55:46.651Z,6.90
2023-04-29T20:58:13.518Z,8.43
2023-04-29T21:12:29.681Z,6.00
2023-04-29T21:14:56.490Z,7.03
2023-04-29T21:17:23.394Z,6.27
2023-04-29T21:19:50.218Z,6.03
2023-04-29T21:22:17.026Z,6.67
2023-04-29T21:24:43.878Z,10.87
2023-04-29T21:27:10.732Z,9.03
2023-04-29T21:29:41.013Z,6.50
2023-04-29T21:32:08.715Z,11.83
2023-04-29T21:34:36.107Z,10.73
2023-04-29T21:37:03.010Z,9.50
2023-04-29T21:39:31.971Z,6.93
2023-04-29T21:42:00.946Z,7.50
2023-04-29T21:44:27.993Z,7.67
2023-04-29T21:46:54.901Z,6.70
2023-04-29T21:49:21.852Z,6.40
2023-04-29T21:51:48.697Z,6.80
2023-04-29T21:54:15.563Z,14.70
2023-04-29T21:56:42.716Z,13.93
2023-04-29T21:59:09.563Z,7.77
2023-04-29T22:01:45.804Z,6.57
2023-04-29T22:04:33.944Z,7.30
2023-04-29T22:07:07.410Z,5.70
2023-04-29T22:09:34.368Z,11.60
2023-04-29T22:12:03.095Z,7.20
2023-04-29T22:14:51.068Z,13.03
2023-04-29T22:17:45.654Z,10.30
2023-04-29T22:20:13.535Z,6.67
2023-04-29T22:22:40.970Z,13.43
2023-04-29T22:25:08.535Z,7.33
2023-04-29T22:27:35.480Z,6.80
2023-04-29T22:30:16.297Z,7.50
2023-04-29T22:32:48.734Z,7.57
2023-04-29T22:35:16.388Z,6.90
2023-04-29T22:37:43.419Z,7.87
2023-04-29T22:40:11.078Z,7.53
2023-04-29T22:42:38.017Z,7.30
2023-04-29T22:45:05.338Z,7.87
2023-04-29T22:47:32.298Z,17.10
2023-04-29T22:49:59.107Z,6.73
2023-04-29T22:52:27.597Z,7.00
2023-04-29T22:54:54.417Z,6.90
2023-04-29T22:57:21.402Z,6.13
2023-04-29T22:59:49.429Z,15.77
2023-04-29T23:02:16.546Z,7.07
2023-04-29T23:04:46.351Z,10.77
2023-04-29T23:07:13.194Z,5.37
2023-04-29T23:09:40.019Z,6.73
2023-04-29T23:12:06.851Z,6.90
2023-04-29T23:14:33.653Z,7.93
2023-04-29T23:17:00.493Z,8.00
2023-04-29T23:19:27.352Z,8.73
2023-04-29T23:21:54.170Z,9.60
2023-04-29T23:24:20.977Z,7.50
2023-04-29T23:26:48.326Z,11.53
2023-04-29T23:29:15.772Z,13.27
2023-04-29T23:31:44.149Z,11.33
2023-04-29T23:34:11.950Z,9.53
2023-04-29T23:36:38.821Z,7.93
2023-04-29T23:39:05.657Z,9.03
2023-04-29T23:41:32.609Z,13.63
2023-04-29T23:44:02.608Z,14.07
2023-04-29T23:46:30.952Z,18.33
2023-04-29T23:48:57.806Z,9.83
2023-04-29T23:51:26.389Z,11.60
2023-04-29T23:53:53.308Z,11.77
2023-04-29T23:56:20.133Z,11.80
2023-04-29T23:58:46.938Z,14.77
